Huvudsida
METAR-TAF:

METAR-TAF

Flygplatser :

Bric della Croce

Turin, Italien

latitud: 45-02N, longitud: 007-44E, höjd: 709 m

Aktuellt väderrapport

Denna rapport gjordes för 1 timme och 7 minuter sedan, klockan 20:55 UTC
Stilla vind
Temperatur 5°C
Fuktighet 100%
Tryck 1018 hPa
Sikt 10 km eller mer
Inga moln under 1 500 m eller inga cumulonimbus

METAR: LIMK 262055Z 00000KT CAVOK 05/05 Q1018 RMK BKN SCT090 SCT210 VAL FOSCHIA VIS MIN 9999

Tid: 23:02 (22:02 UTC)


TAF: saknas

Aktuella väderrapporter och prognoser från 4000 flygplatser (METAR- och TAF-rapporter).

De tillgängliga stationerna syns som gula och röda prickar på kartan.

För musen över prickarna för att se namnen på stationerna.

Klicka sedan för att få väderrapporter och prognoser.

För att ändra kartan: Klicka på de gröna knapparna med ett svart kors på för att zooma in; den gröna knappen med ett streck på för att zooma ut; eller på de gröna pilarna för angränsande kartor.


METAR-TAF: